sensor_id;sensor_type;location;lat;lon;timestamp;temperature;humidity
77829;DHT22;67019;51.034;3.728;2023-05-10T00:00:29;12.00;99.90
77829;DHT22;67019;51.034;3.728;2023-05-10T00:02:59;12.00;99.90
77829;DHT22;67019;51.034;3.728;2023-05-10T00:05:26;12.00;99.90
77829;DHT22;67019;51.034;3.728;2023-05-10T00:07:54;12.00;99.90
77829;DHT22;67019;51.034;3.728;2023-05-10T00:10:22;12.00;99.90
77829;DHT22;67019;51.034;3.728;2023-05-10T00:12:49;11.90;99.90
77829;DHT22;67019;51.034;3.728;2023-05-10T00:15:17;12.00;99.90
77829;DHT22;67019;51.034;3.728;2023-05-10T00:17:44;12.00;99.90
77829;DHT22;67019;51.034;3.728;2023-05-10T00:20:12;12.00;99.90
77829;DHT22;67019;51.034;3.728;2023-05-10T00:22:40;12.10;99.90
77829;DHT22;67019;51.034;3.728;2023-05-10T00:25:09;12.10;99.90
77829;DHT22;67019;51.034;3.728;2023-05-10T00:27:37;12.10;99.90
77829;DHT22;67019;51.034;3.728;2023-05-10T00:30:05;12.00;99.90
77829;DHT22;67019;51.034;3.728;2023-05-10T00:32:33;12.00;99.90
77829;DHT22;67019;51.034;3.728;2023-05-10T00:35:00;12.00;99.90
77829;DHT22;67019;51.034;3.728;2023-05-10T00:37:28;12.00;99.90
77829;DHT22;67019;51.034;3.728;2023-05-10T00:39:56;12.10;99.90
77829;DHT22;67019;51.034;3.728;2023-05-10T00:42:23;12.10;99.90
77829;DHT22;67019;51.034;3.728;2023-05-10T00:44:52;12.10;99.90
77829;DHT22;67019;51.034;3.728;2023-05-10T00:47:20;12.10;99.90
77829;DHT22;67019;51.034;3.728;2023-05-10T00:49:48;12.10;99.90
77829;DHT22;67019;51.034;3.728;2023-05-10T00:52:16;12.10;99.90
77829;DHT22;67019;51.034;3.728;2023-05-10T00:54:43;12.10;99.90
77829;DHT22;67019;51.034;3.728;2023-05-10T00:57:11;12.00;99.90
77829;DHT22;67019;51.034;3.728;2023-05-10T00:59:39;12.00;99.90
77829;DHT22;67019;51.034;3.728;2023-05-10T01:02:07;12.00;99.90
77829;DHT22;67019;51.034;3.728;2023-05-10T01:04:35;12.10;99.90
77829;DHT22;67019;51.034;3.728;2023-05-10T01:07:05;12.00;99.90
77829;DHT22;67019;51.034;3.728;2023-05-10T01:09:34;12.10;99.90
77829;DHT22;67019;51.034;3.728;2023-05-10T01:12:02;12.10;99.90
77829;DHT22;67019;51.034;3.728;2023-05-10T01:14:30;12.00;99.90
77829;DHT22;67019;51.034;3.728;2023-05-10T01:16:58;12.20;99.90
77829;DHT22;67019;51.034;3.728;2023-05-10T01:19:31;12.10;99.90
77829;DHT22;67019;51.034;3.728;2023-05-10T01:33:10;12.10;99.90
77829;DHT22;67019;51.034;3.728;2023-05-10T01:35:41;12.10;99.90
77829;DHT22;67019;51.034;3.728;2023-05-10T01:41:18;12.10;99.90
77829;DHT22;67019;51.034;3.728;2023-05-10T01:44:02;12.00;99.90
77829;DHT22;67019;51.034;3.728;2023-05-10T01:46:38;12.10;99.90
77829;DHT22;67019;51.034;3.728;2023-05-10T01:49:23;12.00;99.90
77829;DHT22;67019;51.034;3.728;2023-05-10T01:51:51;12.00;99.90
77829;DHT22;67019;51.034;3.728;2023-05-10T01:54:22;12.00;99.90
77829;DHT22;67019;51.034;3.728;2023-05-10T01:56:55;12.00;99.90
77829;DHT22;67019;51.034;3.728;2023-05-10T01:59:22;12.00;99.90
77829;DHT22;67019;51.034;3.728;2023-05-10T02:01:52;11.90;99.90
77829;DHT22;67019;51.034;3.728;2023-05-10T02:04:22;11.90;99.90
77829;DHT22;67019;51.034;3.728;2023-05-10T02:06:52;11.80;99.90
77829;DHT22;67019;51.034;3.728;2023-05-10T02:09:21;11.90;99.90
77829;DHT22;67019;51.034;3.728;2023-05-10T02:11:50;11.90;99.90
77829;DHT22;67019;51.034;3.728;2023-05-10T02:14:19;11.90;99.90
77829;DHT22;67019;51.034;3.728;2023-05-10T02:16:47;11.90;99.90
77829;DHT22;67019;51.034;3.728;2023-05-10T02:19:17;11.90;99.90
77829;DHT22;67019;51.034;3.728;2023-05-10T02:21:46;11.90;99.90
77829;DHT22;67019;51.034;3.728;2023-05-10T02:24:15;13.00;99.90
77829;DHT22;67019;51.034;3.728;2023-05-10T02:26:44;11.80;99.90
77829;DHT22;67019;51.034;3.728;2023-05-10T02:29:13;11.90;99.90
77829;DHT22;67019;51.034;3.728;2023-05-10T02:31:41;12.00;99.90
77829;DHT22;67019;51.034;3.728;2023-05-10T02:34:10;12.00;99.90
77829;DHT22;67019;51.034;3.728;2023-05-10T02:36:39;11.90;99.90
77829;DHT22;67019;51.034;3.728;2023-05-10T02:39:08;11.80;99.90
77829;DHT22;67019;51.034;3.728;2023-05-10T02:41:38;12.10;99.90
77829;DHT22;67019;51.034;3.728;2023-05-10T02:44:08;11.90;99.90
77829;DHT22;67019;51.034;3.728;2023-05-10T02:46:36;12.00;99.90
77829;DHT22;67019;51.034;3.728;2023-05-10T02:49:04;12.10;99.90
77829;DHT22;67019;51.034;3.728;2023-05-10T02:51:34;12.10;99.90
77829;DHT22;67019;51.034;3.728;2023-05-10T02:54:11;12.00;99.90
77829;DHT22;67019;51.034;3.728;2023-05-10T02:56:42;12.10;99.90
77829;DHT22;67019;51.034;3.728;2023-05-10T02:59:10;12.00;99.90
77829;DHT22;67019;51.034;3.728;2023-05-10T03:01:38;12.10;99.90
77829;DHT22;67019;51.034;3.728;2023-05-10T03:04:08;12.10;99.90
77829;DHT22;67019;51.034;3.728;2023-05-10T03:06:36;12.30;99.90
77829;DHT22;67019;51.034;3.728;2023-05-10T03:09:05;12.30;99.90
77829;DHT22;67019;51.034;3.728;2023-05-10T03:14:45;12.20;99.90
77829;DHT22;67019;51.034;3.728;2023-05-10T03:17:22;12.10;99.90
77829;DHT22;67019;51.034;3.728;2023-05-10T03:20:06;12.20;99.90
77829;DHT22;67019;51.034;3.728;2023-05-10T03:22:45;12.10;99.90
77829;DHT22;67019;51.034;3.728;2023-05-10T03:25:08;12.20;99.90
77829;DHT22;67019;51.034;3.728;2023-05-10T03:27:39;12.20;99.90
77829;DHT22;67019;51.034;3.728;2023-05-10T03:30:11;12.10;99.90
77829;DHT22;67019;51.034;3.728;2023-05-10T03:32:40;12.10;99.90
77829;DHT22;67019;51.034;3.728;2023-05-10T03:35:09;12.30;99.90
77829;DHT22;67019;51.034;3.728;2023-05-10T03:37:39;12.10;99.90
77829;DHT22;67019;51.034;3.728;2023-05-10T03:40:07;12.10;99.90
77829;DHT22;67019;51.034;3.728;2023-05-10T03:42:35;12.20;99.90
77829;DHT22;67019;51.034;3.728;2023-05-10T03:45:03;12.30;99.90
77829;DHT22;67019;51.034;3.728;2023-05-10T03:47:31;12.20;99.90
77829;DHT22;67019;51.034;3.728;2023-05-10T03:49:58;12.10;99.90
77829;DHT22;67019;51.034;3.728;2023-05-10T03:52:26;12.10;99.90
77829;DHT22;67019;51.034;3.728;2023-05-10T03:54:55;12.10;99.90
77829;DHT22;67019;51.034;3.728;2023-05-10T03:57:24;12.10;99.90
77829;DHT22;67019;51.034;3.728;2023-05-10T03:59:53;12.10;99.90
77829;DHT22;67019;51.034;3.728;2023-05-10T04:02:21;12.00;99.90
77829;DHT22;67019;51.034;3.728;2023-05-10T04:04:49;12.00;99.90
77829;DHT22;67019;51.034;3.728;2023-05-10T04:07:17;12.10;99.90
77829;DHT22;67019;51.034;3.728;2023-05-10T04:09:44;12.10;99.90
77829;DHT22;67019;51.034;3.728;2023-05-10T04:12:15;12.30;99.90
77829;DHT22;67019;51.034;3.728;2023-05-10T04:14:42;12.30;99.90
77829;DHT22;67019;51.034;3.728;2023-05-10T04:17:10;12.10;99.90
77829;DHT22;67019;51.034;3.728;2023-05-10T04:19:38;12.10;99.90
77829;DHT22;67019;51.034;3.728;2023-05-10T04:22:05;12.10;99.90
77829;DHT22;67019;51.034;3.728;2023-05-10T04:24:33;12.10;99.90
77829;DHT22;67019;51.034;3.728;2023-05-10T04:27:01;12.00;99.90
77829;DHT22;67019;51.034;3.728;2023-05-10T04:29:28;12.10;99.90
77829;DHT22;67019;51.034;3.728;2023-05-10T04:31:56;12.10;99.90
77829;DHT22;67019;51.034;3.728;2023-05-10T04:34:24;12.10;99.90
77829;DHT22;67019;51.034;3.728;2023-05-10T04:36:51;12.00;99.90
77829;DHT22;67019;51.034;3.728;2023-05-10T04:39:19;12.00;99.90
77829;DHT22;67019;51.034;3.728;2023-05-10T04:41:47;12.00;99.90
77829;DHT22;67019;51.034;3.728;2023-05-10T04:44:16;12.10;99.90
77829;DHT22;67019;51.034;3.728;2023-05-10T04:46:44;12.20;99.90
77829;DHT22;67019;51.034;3.728;2023-05-10T04:49:11;12.20;99.90
77829;DHT22;67019;51.034;3.728;2023-05-10T04:51:43;12.30;99.90
77829;DHT22;67019;51.034;3.728;2023-05-10T04:54:10;12.20;99.90
77829;DHT22;67019;51.034;3.728;2023-05-10T04:56:38;12.10;99.90
77829;DHT22;67019;51.034;3.728;2023-05-10T04:59:06;12.10;99.90
77829;DHT22;67019;51.034;3.728;2023-05-10T05:01:33;12.10;99.90
77829;DHT22;67019;51.034;3.728;2023-05-10T05:04:01;12.10;99.90
77829;DHT22;67019;51.034;3.728;2023-05-10T05:06:29;12.10;99.90
77829;DHT22;67019;51.034;3.728;2023-05-10T05:08:56;12.20;99.90
77829;DHT22;67019;51.034;3.728;2023-05-10T05:11:24;12.30;99.90
77829;DHT22;67019;51.034;3.728;2023-05-10T05:13:52;12.50;99.90
77829;DHT22;67019;51.034;3.728;2023-05-10T05:16:20;12.50;99.90
77829;DHT22;67019;51.034;3.728;2023-05-10T05:18:47;12.70;99.90
77829;DHT22;67019;51.034;3.728;2023-05-10T05:21:16;12.40;99.90
77829;DHT22;67019;51.034;3.728;2023-05-10T05:23:44;12.40;99.90
77829;DHT22;67019;51.034;3.728;2023-05-10T05:26:13;12.40;99.90
77829;DHT22;67019;51.034;3.728;2023-05-10T05:28:41;12.20;99.90
77829;DHT22;67019;51.034;3.728;2023-05-10T05:31:09;12.20;99.90
77829;DHT22;67019;51.034;3.728;2023-05-10T05:33:37;12.20;99.90
77829;DHT22;67019;51.034;3.728;2023-05-10T05:36:07;12.30;99.90
77829;DHT22;67019;51.034;3.728;2023-05-10T05:38:36;12.30;99.90
77829;DHT22;67019;51.034;3.728;2023-05-10T05:41:06;12.40;99.90
77829;DHT22;67019;51.034;3.728;2023-05-10T05:43:34;12.20;99.90
77829;DHT22;67019;51.034;3.728;2023-05-10T05:46:01;12.20;99.90
77829;DHT22;67019;51.034;3.728;2023-05-10T05:48:30;12.10;99.90
77829;DHT22;67019;51.034;3.728;2023-05-10T05:50:58;12.30;99.90
77829;DHT22;67019;51.034;3.728;2023-05-10T05:53:26;12.20;99.90
77829;DHT22;67019;51.034;3.728;2023-05-10T05:55:55;12.20;99.90
77829;DHT22;67019;51.034;3.728;2023-05-10T05:58:24;12.30;99.90
77829;DHT22;67019;51.034;3.728;2023-05-10T06:00:52;12.30;99.90
77829;DHT22;67019;51.034;3.728;2023-05-10T06:03:22;12.30;99.90
77829;DHT22;67019;51.034;3.728;2023-05-10T06:05:49;12.40;99.90
77829;DHT22;67019;51.034;3.728;2023-05-10T06:08:17;12.50;99.90
77829;DHT22;67019;51.034;3.728;2023-05-10T06:10:45;12.50;99.90
77829;DHT22;67019;51.034;3.728;2023-05-10T06:13:12;12.60;99.90
77829;DHT22;67019;51.034;3.728;2023-05-10T06:15:41;12.60;99.90
77829;DHT22;67019;51.034;3.728;2023-05-10T06:18:08;12.70;99.90
77829;DHT22;67019;51.034;3.728;2023-05-10T06:20:36;13.00;99.90
77829;DHT22;67019;51.034;3.728;2023-05-10T06:23:03;13.30;99.90
77829;DHT22;67019;51.034;3.728;2023-05-10T06:25:31;13.10;99.90
77829;DHT22;67019;51.034;3.728;2023-05-10T06:28:00;13.00;99.90
77829;DHT22;67019;51.034;3.728;2023-05-10T06:30:28;12.90;99.90
77829;DHT22;67019;51.034;3.728;2023-05-10T06:32:56;13.00;99.90
77829;DHT22;67019;51.034;3.728;2023-05-10T06:35:23;13.00;99.90
77829;DHT22;67019;51.034;3.728;2023-05-10T06:37:51;12.70;99.90
77829;DHT22;67019;51.034;3.728;2023-05-10T06:40:19;12.70;99.90
77829;DHT22;67019;51.034;3.728;2023-05-10T06:42:48;12.60;99.90
77829;DHT22;67019;51.034;3.728;2023-05-10T06:45:16;12.70;99.90
77829;DHT22;67019;51.034;3.728;2023-05-10T06:47:44;12.60;99.90
77829;DHT22;67019;51.034;3.728;2023-05-10T06:50:12;12.60;99.90
77829;DHT22;67019;51.034;3.728;2023-05-10T06:52:39;12.70;99.90
77829;DHT22;67019;51.034;3.728;2023-05-10T06:55:07;12.70;99.90
77829;DHT22;67019;51.034;3.728;2023-05-10T06:57:35;12.80;99.90
77829;DHT22;67019;51.034;3.728;2023-05-10T07:00:03;12.70;99.90
77829;DHT22;67019;51.034;3.728;2023-05-10T07:02:32;12.70;99.90
77829;DHT22;67019;51.034;3.728;2023-05-10T07:04:59;12.70;99.90
77829;DHT22;67019;51.034;3.728;2023-05-10T07:07:27;12.10;99.90
77829;DHT22;67019;51.034;3.728;2023-05-10T07:09:55;12.60;99.90
77829;DHT22;67019;51.034;3.728;2023-05-10T07:12:24;12.80;99.90
77829;DHT22;67019;51.034;3.728;2023-05-10T07:14:53;12.80;99.90
77829;DHT22;67019;51.034;3.728;2023-05-10T07:17:21;12.90;99.90
77829;DHT22;67019;51.034;3.728;2023-05-10T07:19:50;13.00;99.90
77829;DHT22;67019;51.034;3.728;2023-05-10T07:22:18;12.90;99.90
77829;DHT22;67019;51.034;3.728;2023-05-10T07:24:45;12.90;99.90
77829;DHT22;67019;51.034;3.728;2023-05-10T07:27:14;12.80;99.90
77829;DHT22;67019;51.034;3.728;2023-05-10T07:29:42;12.80;99.90
77829;DHT22;67019;51.034;3.728;2023-05-10T07:32:10;12.80;99.90
77829;DHT22;67019;51.034;3.728;2023-05-10T07:34:38;12.70;99.90
77829;DHT22;67019;51.034;3.728;2023-05-10T07:37:06;12.80;99.90
77829;DHT22;67019;51.034;3.728;2023-05-10T07:39:34;13.00;99.90
77829;DHT22;67019;51.034;3.728;2023-05-10T07:42:01;13.10;99.90
77829;DHT22;67019;51.034;3.728;2023-05-10T07:44:29;12.90;99.90
77829;DHT22;67019;51.034;3.728;2023-05-10T07:46:57;12.80;99.90
77829;DHT22;67019;51.034;3.728;2023-05-10T07:49:25;12.80;99.90
77829;DHT22;67019;51.034;3.728;2023-05-10T07:51:52;12.90;99.90
77829;DHT22;67019;51.034;3.728;2023-05-10T07:54:20;12.80;99.90
77829;DHT22;67019;51.034;3.728;2023-05-10T07:56:47;13.00;99.90
77829;DHT22;67019;51.034;3.728;2023-05-10T07:59:16;13.10;99.90
77829;DHT22;67019;51.034;3.728;2023-05-10T08:01:45;13.00;99.90
77829;DHT22;67019;51.034;3.728;2023-05-10T08:04:12;13.50;99.90
77829;DHT22;67019;51.034;3.728;2023-05-10T08:06:40;14.00;99.90
77829;DHT22;67019;51.034;3.728;2023-05-10T08:09:08;13.40;99.90
77829;DHT22;67019;51.034;3.728;2023-05-10T08:11:37;13.90;99.90
77829;DHT22;67019;51.034;3.728;2023-05-10T08:14:05;14.20;99.90
77829;DHT22;67019;51.034;3.728;2023-05-10T08:16:32;14.00;99.90
77829;DHT22;67019;51.034;3.728;2023-05-10T08:19:00;13.60;99.90
77829;DHT22;67019;51.034;3.728;2023-05-10T08:21:28;13.60;99.90
77829;DHT22;67019;51.034;3.728;2023-05-10T08:23:57;14.10;99.90
77829;DHT22;67019;51.034;3.728;2023-05-10T08:26:25;13.50;99.90
77829;DHT22;67019;51.034;3.728;2023-05-10T08:28:53;13.70;99.90
77829;DHT22;67019;51.034;3.728;2023-05-10T08:31:20;13.90;99.90
77829;DHT22;67019;51.034;3.728;2023-05-10T08:33:48;13.80;99.90
77829;DHT22;67019;51.034;3.728;2023-05-10T08:36:15;13.80;99.90
77829;DHT22;67019;51.034;3.728;2023-05-10T08:38:45;13.60;99.90
77829;DHT22;67019;51.034;3.728;2023-05-10T08:41:12;13.60;99.90
77829;DHT22;67019;51.034;3.728;2023-05-10T08:43:41;13.80;99.90
77829;DHT22;67019;51.034;3.728;2023-05-10T08:46:16;13.80;99.90
77829;DHT22;67019;51.034;3.728;2023-05-10T08:48:48;14.20;99.90
77829;DHT22;67019;51.034;3.728;2023-05-10T08:51:25;14.10;99.90
77829;DHT22;67019;51.034;3.728;2023-05-10T08:53:51;13.50;99.90
77829;DHT22;67019;51.034;3.728;2023-05-10T08:56:19;13.60;99.90
77829;DHT22;67019;51.034;3.728;2023-05-10T08:58:47;13.50;99.90
77829;DHT22;67019;51.034;3.728;2023-05-10T09:01:17;13.80;99.90
77829;DHT22;67019;51.034;3.728;2023-05-10T09:03:46;13.80;99.90
77829;DHT22;67019;51.034;3.728;2023-05-10T09:06:14;14.20;99.90
77829;DHT22;67019;51.034;3.728;2023-05-10T09:08:42;13.70;99.90
77829;DHT22;67019;51.034;3.728;2023-05-10T09:11:11;13.70;99.90
77829;DHT22;67019;51.034;3.728;2023-05-10T09:13:39;13.70;99.90
77829;DHT22;67019;51.034;3.728;2023-05-10T09:16:07;13.70;99.90
77829;DHT22;67019;51.034;3.728;2023-05-10T09:18:34;13.80;99.90
77829;DHT22;67019;51.034;3.728;2023-05-10T09:21:04;13.90;99.90
77829;DHT22;67019;51.034;3.728;2023-05-10T09:23:31;13.80;99.90
77829;DHT22;67019;51.034;3.728;2023-05-10T09:26:05;14.20;99.90
77829;DHT22;67019;51.034;3.728;2023-05-10T09:28:54;14.40;99.90
77829;DHT22;67019;51.034;3.728;2023-05-10T09:31:23;14.20;99.90
77829;DHT22;67019;51.034;3.728;2023-05-10T09:33:53;14.50;99.90
77829;DHT22;67019;51.034;3.728;2023-05-10T09:36:21;14.50;99.90
77829;DHT22;67019;51.034;3.728;2023-05-10T09:38:51;14.80;99.90
77829;DHT22;67019;51.034;3.728;2023-05-10T09:41:23;14.70;99.90
77829;DHT22;67019;51.034;3.728;2023-05-10T09:43:55;14.90;99.90
77829;DHT22;67019;51.034;3.728;2023-05-10T09:46:23;15.40;99.90
77829;DHT22;67019;51.034;3.728;2023-05-10T09:48:51;16.00;99.20
77829;DHT22;67019;51.034;3.728;2023-05-10T09:51:23;15.60;99.00
77829;DHT22;67019;51.034;3.728;2023-05-10T09:54:12;15.30;99.90
77829;DHT22;67019;51.034;3.728;2023-05-10T09:56:41;15.10;99.90
77829;DHT22;67019;51.034;3.728;2023-05-10T09:59:11;15.30;99.90
77829;DHT22;67019;51.034;3.728;2023-05-10T10:01:42;15.30;99.90
77829;DHT22;67019;51.034;3.728;2023-05-10T10:04:11;15.50;99.70
77829;DHT22;67019;51.034;3.728;2023-05-10T10:06:40;15.00;99.90
77829;DHT22;67019;51.034;3.728;2023-05-10T10:09:09;15.00;99.90
77829;DHT22;67019;51.034;3.728;2023-05-10T10:11:37;15.60;99.20
77829;DHT22;67019;51.034;3.728;2023-05-10T10:14:06;16.00;98.10
77829;DHT22;67019;51.034;3.728;2023-05-10T10:16:35;15.90;98.30
77829;DHT22;67019;51.034;3.728;2023-05-10T10:19:02;15.80;97.80
77829;DHT22;67019;51.034;3.728;2023-05-10T10:21:30;15.70;98.20
77829;DHT22;67019;51.034;3.728;2023-05-10T10:23:58;16.00;98.50
77829;DHT22;67019;51.034;3.728;2023-05-10T10:26:26;16.30;97.80
77829;DHT22;67019;51.034;3.728;2023-05-10T10:29:32;16.50;97.00
77829;DHT22;67019;51.034;3.728;2023-05-10T10:34:50;16.60;96.40
77829;DHT22;67019;51.034;3.728;2023-05-10T10:37:18;16.80;96.40
77829;DHT22;67019;51.034;3.728;2023-05-10T10:39:50;17.00;95.90
77829;DHT22;67019;51.034;3.728;2023-05-10T10:45:13;17.20;95.90
77829;DHT22;67019;51.034;3.728;2023-05-10T10:47:41;17.30;95.30
77829;DHT22;67019;51.034;3.728;2023-05-10T10:50:11;17.20;95.30
77829;DHT22;67019;51.034;3.728;2023-05-10T10:52:40;17.00;95.40
77829;DHT22;67019;51.034;3.728;2023-05-10T10:55:19;16.60;96.50
77829;DHT22;67019;51.034;3.728;2023-05-10T10:57:50;16.50;96.30
77829;DHT22;67019;51.034;3.728;2023-05-10T11:03:03;15.70;98.40
77829;DHT22;67019;51.034;3.728;2023-05-10T11:05:50;15.80;99.00
77829;DHT22;67019;51.034;3.728;2023-05-10T11:08:27;16.50;97.90
77829;DHT22;67019;51.034;3.728;2023-05-10T11:11:03;16.50;96.70
77829;DHT22;67019;51.034;3.728;2023-05-10T11:13:37;15.80;97.90
77829;DHT22;67019;51.034;3.728;2023-05-10T11:16:12;15.50;99.30
77829;DHT22;67019;51.034;3.728;2023-05-10T11:18:39;15.70;99.60
77829;DHT22;67019;51.034;3.728;2023-05-10T11:21:08;15.70;99.90
77829;DHT22;67019;51.034;3.728;2023-05-10T11:26:17;14.90;99.90
77829;DHT22;67019;51.034;3.728;2023-05-10T11:28:45;14.10;99.90
77829;DHT22;67019;51.034;3.728;2023-05-10T11:31:17;14.00;99.90
77829;DHT22;67019;51.034;3.728;2023-05-10T11:33:46;14.00;99.90
77829;DHT22;67019;51.034;3.728;2023-05-10T11:36:19;14.20;99.90
77829;DHT22;67019;51.034;3.728;2023-05-10T11:38:47;14.20;99.90
77829;DHT22;67019;51.034;3.728;2023-05-10T11:41:17;14.00;99.90
77829;DHT22;67019;51.034;3.728;2023-05-10T11:43:46;14.10;99.90
77829;DHT22;67019;51.034;3.728;2023-05-10T11:46:18;14.30;99.90
77829;DHT22;67019;51.034;3.728;2023-05-10T11:48:51;14.30;99.90
77829;DHT22;67019;51.034;3.728;2023-05-10T11:51:23;14.30;99.90
77829;DHT22;67019;51.034;3.728;2023-05-10T11:53:53;14.70;99.90
77829;DHT22;67019;51.034;3.728;2023-05-10T11:56:21;16.40;99.90
77829;DHT22;67019;51.034;3.728;2023-05-10T11:58:57;15.60;99.90
77829;DHT22;67019;51.034;3.728;2023-05-10T12:01:25;15.60;99.90
77829;DHT22;67019;51.034;3.728;2023-05-10T12:03:54;15.90;99.90
77829;DHT22;67019;51.034;3.728;2023-05-10T12:06:26;15.50;99.90
77829;DHT22;67019;51.034;3.728;2023-05-10T12:08:55;15.90;99.90
77829;DHT22;67019;51.034;3.728;2023-05-10T12:11:24;16.10;99.90
77829;DHT22;67019;51.034;3.728;2023-05-10T12:13:54;16.00;99.90
77829;DHT22;67019;51.034;3.728;2023-05-10T12:16:25;16.20;99.90
77829;DHT22;67019;51.034;3.728;2023-05-10T12:18:56;16.00;99.90
77829;DHT22;67019;51.034;3.728;2023-05-10T12:21:26;16.00;99.90
77829;DHT22;67019;51.034;3.728;2023-05-10T12:23:54;15.20;99.90
77829;DHT22;67019;51.034;3.728;2023-05-10T12:26:23;15.50;99.90
77829;DHT22;67019;51.034;3.728;2023-05-10T12:29:12;15.50;99.90
77829;DHT22;67019;51.034;3.728;2023-05-10T12:31:55;15.80;99.90
77829;DHT22;67019;51.034;3.728;2023-05-10T12:34:33;16.20;99.90
77829;DHT22;67019;51.034;3.728;2023-05-10T12:37:03;16.20;99.90
77829;DHT22;67019;51.034;3.728;2023-05-10T12:39:41;16.40;99.90
77829;DHT22;67019;51.034;3.728;2023-05-10T12:42:09;16.00;99.90
77829;DHT22;67019;51.034;3.728;2023-05-10T12:44:37;16.00;99.90
77829;DHT22;67019;51.034;3.728;2023-05-10T12:47:06;15.60;99.90
77829;DHT22;67019;51.034;3.728;2023-05-10T12:49:33;15.50;99.90
77829;DHT22;67019;51.034;3.728;2023-05-10T12:52:03;15.50;99.90
77829;DHT22;67019;51.034;3.728;2023-05-10T12:54:32;15.20;99.90
77829;DHT22;67019;51.034;3.728;2023-05-10T12:57:00;14.80;99.90
77829;DHT22;67019;51.034;3.728;2023-05-10T12:59:28;14.70;99.90
77829;DHT22;67019;51.034;3.728;2023-05-10T13:01:56;14.40;99.90
77829;DHT22;67019;51.034;3.728;2023-05-10T13:04:24;14.00;99.90
77829;DHT22;67019;51.034;3.728;2023-05-10T13:06:52;13.90;99.90
77829;DHT22;67019;51.034;3.728;2023-05-10T13:09:21;15.20;99.90
77829;DHT22;67019;51.034;3.728;2023-05-10T13:11:49;13.90;99.90
77829;DHT22;67019;51.034;3.728;2023-05-10T13:14:17;13.80;99.90
77829;DHT22;67019;51.034;3.728;2023-05-10T13:16:46;13.80;99.90
77829;DHT22;67019;51.034;3.728;2023-05-10T13:19:15;13.80;99.90
77829;DHT22;67019;51.034;3.728;2023-05-10T13:21:45;14.10;99.90
77829;DHT22;67019;51.034;3.728;2023-05-10T13:24:12;14.40;99.90
77829;DHT22;67019;51.034;3.728;2023-05-10T13:26:44;14.50;99.90
77829;DHT22;67019;51.034;3.728;2023-05-10T13:29:13;14.50;99.90
77829;DHT22;67019;51.034;3.728;2023-05-10T13:31:42;14.50;99.90
77829;DHT22;67019;51.034;3.728;2023-05-10T13:34:09;14.40;99.90
77829;DHT22;67019;51.034;3.728;2023-05-10T13:36:37;14.50;99.90
77829;DHT22;67019;51.034;3.728;2023-05-10T13:39:05;14.50;99.90
77829;DHT22;67019;51.034;3.728;2023-05-10T13:41:33;14.50;99.90
77829;DHT22;67019;51.034;3.728;2023-05-10T13:44:00;14.60;99.90
77829;DHT22;67019;51.034;3.728;2023-05-10T13:46:29;14.60;99.90
77829;DHT22;67019;51.034;3.728;2023-05-10T13:48:57;14.80;99.90
77829;DHT22;67019;51.034;3.728;2023-05-10T13:51:25;15.00;99.90
77829;DHT22;67019;51.034;3.728;2023-05-10T13:53:52;14.90;99.90
77829;DHT22;67019;51.034;3.728;2023-05-10T13:56:20;14.80;99.90
77829;DHT22;67019;51.034;3.728;2023-05-10T13:58:48;14.90;99.90
77829;DHT22;67019;51.034;3.728;2023-05-10T14:01:15;14.80;99.90
77829;DHT22;67019;51.034;3.728;2023-05-10T14:03:43;14.80;99.90
77829;DHT22;67019;51.034;3.728;2023-05-10T14:06:10;14.80;99.90
77829;DHT22;67019;51.034;3.728;2023-05-10T14:08:38;14.80;99.90
77829;DHT22;67019;51.034;3.728;2023-05-10T14:11:06;14.80;99.90
77829;DHT22;67019;51.034;3.728;2023-05-10T14:13:34;14.30;99.90
77829;DHT22;67019;51.034;3.728;2023-05-10T14:16:01;14.30;99.90
77829;DHT22;67019;51.034;3.728;2023-05-10T14:18:29;14.20;99.90
77829;DHT22;67019;51.034;3.728;2023-05-10T14:20:57;14.20;99.90
77829;DHT22;67019;51.034;3.728;2023-05-10T14:23:25;14.30;99.90
77829;DHT22;67019;51.034;3.728;2023-05-10T14:25:55;14.40;99.90
77829;DHT22;67019;51.034;3.728;2023-05-10T14:28:22;14.90;99.90
77829;DHT22;67019;51.034;3.728;2023-05-10T14:30:51;15.10;99.90
77829;DHT22;67019;51.034;3.728;2023-05-10T14:33:19;15.30;99.90
77829;DHT22;67019;51.034;3.728;2023-05-10T14:35:47;15.70;99.90
77829;DHT22;67019;51.034;3.728;2023-05-10T14:38:15;15.90;99.90
77829;DHT22;67019;51.034;3.728;2023-05-10T14:40:43;15.50;99.90
77829;DHT22;67019;51.034;3.728;2023-05-10T14:43:10;15.50;99.90
77829;DHT22;67019;51.034;3.728;2023-05-10T14:45:39;15.50;99.90
77829;DHT22;67019;51.034;3.728;2023-05-10T14:48:07;15.60;99.90
77829;DHT22;67019;51.034;3.728;2023-05-10T14:50:38;15.90;99.90
77829;DHT22;67019;51.034;3.728;2023-05-10T14:53:06;16.00;99.90
77829;DHT22;67019;51.034;3.728;2023-05-10T14:55:33;15.70;99.90
77829;DHT22;67019;51.034;3.728;2023-05-10T14:58:03;15.70;99.90
77829;DHT22;67019;51.034;3.728;2023-05-10T15:00:31;16.10;99.90
77829;DHT22;67019;51.034;3.728;2023-05-10T15:03:00;16.40;99.50
77829;DHT22;67019;51.034;3.728;2023-05-10T15:05:28;16.10;99.70
77829;DHT22;67019;51.034;3.728;2023-05-10T15:07:56;16.20;99.20
77829;DHT22;67019;51.034;3.728;2023-05-10T15:10:23;16.30;99.10
77829;DHT22;67019;51.034;3.728;2023-05-10T15:12:51;16.10;98.40
77829;DHT22;67019;51.034;3.728;2023-05-10T15:15:19;16.30;98.40
77829;DHT22;67019;51.034;3.728;2023-05-10T15:17:47;16.30;98.90
77829;DHT22;67019;51.034;3.728;2023-05-10T15:20:15;16.40;97.90
77829;DHT22;67019;51.034;3.728;2023-05-10T15:22:43;16.60;96.70
77829;DHT22;67019;51.034;3.728;2023-05-10T15:25:10;16.70;96.00
77829;DHT22;67019;51.034;3.728;2023-05-10T15:27:38;16.60;96.90
77829;DHT22;67019;51.034;3.728;2023-05-10T15:30:06;16.50;96.70
77829;DHT22;67019;51.034;3.728;2023-05-10T15:32:34;16.60;95.80
77829;DHT22;67019;51.034;3.728;2023-05-10T15:35:04;16.60;95.50
77829;DHT22;67019;51.034;3.728;2023-05-10T15:37:31;16.60;94.80
77829;DHT22;67019;51.034;3.728;2023-05-10T15:39:59;16.50;94.70
77829;DHT22;67019;51.034;3.728;2023-05-10T15:42:28;16.50;95.80
77829;DHT22;67019;51.034;3.728;2023-05-10T15:44:57;16.60;95.00
77829;DHT22;67019;51.034;3.728;2023-05-10T15:47:26;16.00;95.70
77829;DHT22;67019;51.034;3.728;2023-05-10T15:49:54;16.00;96.30
77829;DHT22;67019;51.034;3.728;2023-05-10T15:52:21;16.50;94.90
77829;DHT22;67019;51.034;3.728;2023-05-10T15:54:50;16.60;95.50
77829;DHT22;67019;51.034;3.728;2023-05-10T15:57:18;16.70;94.20
77829;DHT22;67019;51.034;3.728;2023-05-10T15:59:47;16.80;93.40
77829;DHT22;67019;51.034;3.728;2023-05-10T16:02:15;17.00;93.30
77829;DHT22;67019;51.034;3.728;2023-05-10T16:04:44;17.00;93.00
77829;DHT22;67019;51.034;3.728;2023-05-10T16:07:12;17.20;91.70
77829;DHT22;67019;51.034;3.728;2023-05-10T16:09:41;17.30;91.40